This is the latest recevied weather packets stored in our database for station/object R1ZCU-14. If no packets are shown the sender has not sent any weather packets the latest 10 day(s).
| Time | Temp. | Humidity | Pressure | Rain* | Wind** | Luminosity | Snow |
|---|---|---|---|---|---|---|---|
| 1777776003 | 7.22° C | 45% | 990.8 hPa | - | - | - | - |
| 1777775402 | 6.67° C | 46% | 990.7 hPa | - | - | - | - |
| 1777774802 | 5.56° C | 47% | 990.8 hPa | - | - | - | - |
| 1777774201 | 5.56° C | 48% | 990.8 hPa | - | - | - | - |
| 1777773601 | 5.56° C | 50% | 990.9 hPa | - | - | - | - |
| 1777773000 | 3.89° C | 53% | 990.8 hPa | - | - | - | - |
| 1777772400 | 2.78° C | 56% | 991 hPa | - | - | - | - |
| 1777771799 | 2.78° C | 58% | 991.2 hPa | - | - | - | - |
| 1777771199 | 2.78° C | 60% | 991.1 hPa | - | - | - | - |
| 1777770598 | 2.22° C | 63% | 991.1 hPa | - | - | - | - |
| 1777769998 | 1.11° C | 67% | 991.3 hPa | - | - | - | - |
| 1777769397 | 1.11° C | 66% | 991.2 hPa | - | - | - | - |
| 1777768797 | 1.11° C | 66% | 991.2 hPa | - | - | - | - |
| 1777768196 | 1.11° C | 65% | 991.1 hPa | - | - | - | - |
| 1777767596 | 1.11° C | 64% | 990.9 hPa | - | - | - | - |
| 1777766995 | 1.11° C | 63% | 990.9 hPa | - | - | - | - |
| 1777766395 | 1.67° C | 62% | 990.9 hPa | - | - | - | - |
| 1777765794 | 1.67° C | 61% | 991 hPa | - | - | - | - |
| 1777765194 | 1.67° C | 61% | 990.9 hPa | - | - | - | - |
| 1777764593 | 2.22° C | 59% | 990.9 hPa | - | - | - | - |
| 1777763993 | 2.22° C | 60% | 990.9 hPa | - | - | - | - |
| 1777763392 | 2.22° C | 60% | 990.7 hPa | - | - | - | - |
| 1777762792 | 2.22° C | 60% | 990.7 hPa | - | - | - | - |
| 1777762191 | 2.22° C | 60% | 990.4 hPa | - | - | - | - |
| 1777761591 | 2.78° C | 63% | 990.4 hPa | - | - | - | - |
* Rain since midnight (hover to see other rain measurements)
** Current wind speed in m/s (hover to see current wind gust speed)